Time;durP1;ratioP1;P1;durP2;ratioP2;P2;SDS_P1;SDS_P2;PMS_P1;PMS_P2;Temp;Humidity;BMP_temperature;BMP_pressure;BME280_temperature;BME280_humidity;BME280_pressure;Samples;Min_cycle;Max_cycle;Signal;HPM_P1;HPM_P2
2022/11/19 00:01:28;;;;;;;15.57;7.10;;;12.80;93.50;;;;;;5010372;28;20202;-92
2022/11/19 00:03:55;;;;;;;19.10;8.27;;;12.80;93.60;;;;;;5007518;28;20891;-92
2022/11/19 00:06:33;;;;;;;14.73;7.27;;;12.90;93.60;;;;;;5006175;28;20210;-92
2022/11/19 00:09:05;;;;;;;18.40;7.43;;;12.80;93.60;;;;;;4996570;28;20257;-93
2022/11/19 00:14:16;;;;;;;17.30;7.60;;;12.90;93.50;;;;;;4984698;28;20207;-93
2022/11/19 00:16:49;;;;;;;12.37;6.47;;;12.90;93.50;;;;;;5018180;28;20205;-91
2022/11/19 00:19:16;;;;;;;14.87;7.33;;;12.90;93.60;;;;;;5001727;28;20206;-92
2022/11/19 00:21:45;;;;;;;15.83;7.27;;;12.90;93.50;;;;;;5015785;28;20243;-92
2022/11/19 00:24:14;;;;;;;13.77;6.90;;;12.90;93.60;;;;;;5010721;28;20257;-92
2022/11/19 00:26:42;;;;;;;13.00;6.80;;;12.90;93.60;;;;;;5005592;28;20241;-90
2022/11/19 00:29:11;;;;;;;13.03;6.47;;;12.90;93.60;;;;;;5004459;28;20241;-91
2022/11/19 00:31:39;;;;;;;15.07;7.37;;;12.90;93.60;;;;;;5013355;28;20213;-91
2022/11/19 00:34:12;;;;;;;10.40;5.77;;;12.90;93.50;;;;;;5003875;28;20206;-90
2022/11/19 00:36:47;;;;;;;18.03;7.20;;;12.90;93.60;;;;;;5010418;28;20293;-92
2022/11/19 00:39:20;;;;;;;14.10;6.50;;;13.00;93.60;;;;;;5018239;28;20255;-92
2022/11/19 00:41:51;;;;;;;20.07;7.87;;;12.90;93.50;;;;;;5000288;28;20207;-92
2022/11/19 00:44:22;;;;;;;17.30;7.27;;;13.00;93.60;;;;;;5008512;28;20658;-92
2022/11/19 00:46:49;;;;;;;14.97;6.97;;;12.90;93.70;;;;;;4995354;28;20296;-92
2022/11/19 00:49:17;;;;;;;12.70;5.90;;;12.90;93.60;;;;;;5009277;28;20218;-92
2022/11/19 00:51:51;;;;;;;14.20;6.40;;;12.90;93.60;;;;;;5013997;28;20212;-91
2022/11/19 00:54:23;;;;;;;11.83;4.83;;;12.90;93.70;;;;;;5003978;28;20317;-93
2022/11/19 00:56:50;;;;;;;19.13;7.30;;;12.90;93.80;;;;;;5006095;28;20210;-93
2022/11/19 00:59:19;;;;;;;9.50;4.37;;;12.90;93.70;;;;;;4992467;28;20273;-91
2022/11/19 01:01:50;;;;;;;21.60;6.17;;;12.90;93.80;;;;;;4996568;28;20648;-91
2022/11/19 01:04:19;;;;;;;14.80;5.90;;;12.90;93.70;;;;;;5009438;28;20213;-91
2022/11/19 01:06:49;;;;;;;11.67;4.60;;;12.90;93.60;;;;;;4997716;28;20205;-92
2022/11/19 01:09:16;;;;;;;8.50;3.40;;;12.90;93.50;;;;;;5018048;28;20195;-91
2022/11/19 01:11:48;;;;;;;8.13;3.53;;;12.90;93.50;;;;;;5017837;28;20198;-92
2022/11/19 01:14:17;;;;;;;14.37;5.47;;;12.90;93.50;;;;;;5019708;28;20205;-93
2022/11/19 01:16:48;;;;;;;8.83;3.40;;;12.90;93.40;;;;;;5010619;28;20248;-92
2022/11/19 01:19:19;;;;;;;7.83;3.53;;;12.90;93.40;;;;;;5021338;28;20215;-92
2022/11/19 01:21:52;;;;;;;10.07;3.53;;;12.90;93.40;;;;;;5032548;28;20215;-91
2022/11/19 01:24:27;;;;;;;9.43;3.67;;;12.90;93.30;;;;;;5029855;28;20223;-91
2022/11/19 01:27:00;;;;;;;10.57;3.97;;;12.90;93.30;;;;;;5016792;28;20217;-91
2022/11/19 01:29:35;;;;;;;7.23;2.97;;;12.90;93.20;;;;;;5033190;28;20227;-93
2022/11/19 01:32:17;;;;;;;9.10;3.00;;;12.80;93.10;;;;;;5028092;28;20203;-91
2022/11/19 01:34:55;;;;;;;7.57;3.10;;;12.80;93.10;;;;;;5016236;28;20190;-93
2022/11/19 01:37:22;;;;;;;8.87;3.50;;;12.80;93.10;;;;;;5015018;28;20217;-93
2022/11/19 01:42:52;;;;;;;10.40;3.97;;;12.80;93.20;;;;;;5015840;28;20274;-91
2022/11/19 01:45:32;;;;;;;8.17;3.43;;;12.80;93.20;;;;;;5018716;28;20238;-91
2022/11/19 01:48:04;;;;;;;11.10;4.20;;;12.70;93.30;;;;;;5014548;28;20301;-92
2022/11/19 01:50:34;;;;;;;8.83;3.50;;;12.70;93.30;;;;;;5022939;28;20209;-92
2022/11/19 01:53:02;;;;;;;14.83;5.07;;;12.70;93.30;;;;;;5015223;28;20261;-92
2022/11/19 01:55:39;;;;;;;8.67;3.23;;;12.70;93.30;;;;;;5007657;28;20261;-92
2022/11/19 01:58:09;;;;;;;11.00;4.10;;;12.70;93.50;;;;;;5001281;28;20198;-90
2022/11/19 02:00:36;;;;;;;9.30;3.77;;;12.70;93.50;;;;;;4995750;28;20700;-91
2022/11/19 02:03:03;;;;;;;10.77;3.93;;;12.70;93.40;;;;;;5006494;28;20206;-92
2022/11/19 02:05:38;;;;;;;13.10;4.50;;;12.70;93.50;;;;;;5007541;28;20300;-91
2022/11/19 02:08:08;;;;;;;14.27;4.53;;;12.70;93.60;;;;;;5016041;28;20238;-92
2022/11/19 02:10:58;;;;;;;9.30;3.83;;;12.70;93.60;;;;;;5017371;28;20241;-91
2022/11/19 02:13:42;;;;;;;13.00;4.40;;;12.70;93.70;;;;;;5005979;28;20238;-92
2022/11/19 02:16:19;;;;;;;11.67;3.47;;;12.80;93.70;;;;;;5009540;28;20321;-92
2022/11/19 02:18:51;;;;;;;20.33;6.43;;;12.80;93.70;;;;;;5000909;28;20601;-91
2022/11/19 02:21:32;;;;;;;11.80;3.77;;;12.80;93.70;;;;;;5007113;28;20206;-90
2022/11/19 02:24:36;;;;;;;12.50;3.80;;;12.80;93.80;;;;;;5021413;28;20202;-92
2022/11/19 02:27:25;;;;;;;11.13;3.70;;;12.80;93.70;;;;;;5002310;28;20207;-92
2022/11/19 02:30:15;;;;;;;9.13;3.77;;;12.80;93.70;;;;;;5011081;28;20252;-91
2022/11/19 02:33:00;;;;;;;12.43;4.23;;;12.80;93.70;;;;;;5003457;28;20206;-92
2022/11/19 02:35:43;;;;;;;8.20;3.30;;;12.80;93.80;;;;;;5009625;28;20252;-91
2022/11/19 02:38:24;;;;;;;10.37;3.93;;;12.80;93.70;;;;;;5003610;28;20249;-91
2022/11/19 02:41:00;;;;;;;10.30;3.73;;;12.80;93.80;;;;;;5009677;28;20202;-92
2022/11/19 02:43:35;;;;;;;12.73;4.30;;;12.80;93.70;;;;;;5010944;28;20197;-91
2022/11/19 02:46:12;;;;;;;7.93;3.07;;;12.80;93.70;;;;;;5010020;28;20198;-91
2022/11/19 02:48:43;;;;;;;13.53;4.67;;;12.80;93.80;;;;;;5005197;28;20255;-92
2022/11/19 02:51:20;;;;;;;8.17;3.50;;;12.80;93.70;;;;;;4999032;28;20205;-91
2022/11/19 02:53:54;;;;;;;13.27;4.73;;;12.80;93.80;;;;;;5003929;28;20376;-92
2022/11/19 02:56:52;;;;;;;10.57;3.67;;;12.80;93.80;;;;;;5003833;28;20209;-92
2022/11/19 03:05:09;;;;;;;11.77;4.37;;;12.90;93.80;;;;;;5005926;28;20246;-92
2022/11/19 03:07:38;;;;;;;8.97;3.60;;;12.90;93.80;;;;;;4997980;28;20202;-92
2022/11/19 03:10:09;;;;;;;8.43;3.83;;;12.90;93.80;;;;;;4993748;28;20241;-92
2022/11/19 03:12:49;;;;;;;13.47;3.90;;;12.90;93.80;;;;;;4995314;28;20203;-92
2022/11/19 03:18:21;;;;;;;17.63;5.53;;;12.90;93.80;;;;;;5006166;28;20286;-92
2022/11/19 03:20:56;;;;;;;12.53;4.00;;;12.90;93.80;;;;;;5001008;28;20357;-92
2022/11/19 03:23:33;;;;;;;12.03;4.43;;;12.90;93.80;;;;;;5010456;28;20229;-92
2022/11/19 03:26:10;;;;;;;12.10;4.40;;;12.90;93.80;;;;;;5013448;28;20206;-92
2022/11/19 03:28:41;;;;;;;8.33;3.30;;;12.90;93.80;;;;;;5024651;28;20220;-92
2022/11/19 03:31:09;;;;;;;6.43;2.80;;;13.00;93.80;;;;;;5031492;28;20202;-92
2022/11/19 03:33:44;;;;;;;10.57;3.70;;;13.00;93.80;;;;;;5028480;28;20193;-92
2022/11/19 03:36:20;;;;;;;9.87;3.73;;;13.00;93.90;;;;;;5013528;28;20194;-91
2022/11/19 03:38:58;;;;;;;9.27;3.40;;;13.00;94.40;;;;;;5025276;28;20229;-92
2022/11/19 03:41:28;;;;;;;13.80;4.67;;;13.00;94.10;;;;;;4999467;28;20227;-91
2022/11/19 03:44:02;;;;;;;13.87;4.53;;;13.00;94.00;;;;;;5007905;28;20206;-92
2022/11/19 03:46:31;;;;;;;10.40;3.37;;;13.00;94.00;;;;;;5005561;28;20295;-91
2022/11/19 03:49:04;;;;;;;14.80;4.83;;;13.00;94.00;;;;;;5010302;28;20599;-92
2022/11/19 03:51:41;;;;;;;16.13;4.63;;;13.00;94.10;;;;;;5003288;28;20248;-92
2022/11/19 03:54:09;;;;;;;18.40;6.03;;;13.00;94.00;;;;;;4992695;28;20212;-91
2022/11/19 03:56:39;;;;;;;16.47;5.03;;;13.00;94.00;;;;;;5010112;28;20207;-92
2022/11/19 03:59:10;;;;;;;19.00;5.93;;;13.10;94.00;;;;;;5008196;28;21031;-92
2022/11/19 04:01:38;;;;;;;9.07;3.57;;;13.10;94.00;;;;;;5027168;28;20225;-93
2022/11/19 04:07:01;;;;;;;9.70;3.60;;;13.10;94.00;;;;;;5032353;28;20213;-92
2022/11/19 04:09:31;;;;;;;7.60;3.33;;;13.10;93.90;;;;;;5029312;28;20230;-92
2022/11/19 04:11:59;;;;;;;10.77;3.30;;;13.10;93.90;;;;;;5020296;28;20597;-91
2022/11/19 04:14:28;;;;;;;9.20;3.70;;;13.10;93.90;;;;;;5028930;28;20201;-92
2022/11/19 04:16:57;;;;;;;7.10;2.83;;;13.10;93.80;;;;;;5029659;28;20212;-92
2022/11/19 04:19:27;;;;;;;12.50;4.27;;;13.10;93.90;;;;;;5025480;28;20214;-92
2022/11/19 04:21:57;;;;;;;11.43;3.70;;;13.10;93.90;;;;;;5014374;28;20263;-92
2022/11/19 04:24:25;;;;;;;14.00;4.87;;;13.10;93.90;;;;;;5008100;28;20943;-91
2022/11/19 04:26:53;;;;;;;15.37;5.07;;;13.10;93.90;;;;;;4996194;28;20246;-92
2022/11/19 04:29:33;;;;;;;11.90;3.73;;;13.10;93.90;;;;;;5010646;28;20700;-92
2022/11/19 04:32:00;;;;;;;11.33;4.07;;;13.10;94.20;;;;;;5007826;28;20202;-92
2022/11/19 04:34:31;;;;;;;10.10;3.30;;;13.10;94.00;;;;;;4996638;28;20254;-92
2022/11/19 04:36:58;;;;;;;15.17;4.53;;;13.10;93.90;;;;;;4993989;28;20301;-93
2022/11/19 04:39:25;;;;;;;15.17;4.23;;;13.10;93.80;;;;;;4997215;28;20205;-92
2022/11/19 04:41:52;;;;;;;10.93;3.20;;;13.10;93.70;;;;;;4996633;28;20202;-92
2022/11/19 04:44:21;;;;;;;8.50;2.40;;;13.10;93.40;;;;;;5001920;28;20213;-91
2022/11/19 04:46:50;;;;;;;10.17;3.00;;;13.10;93.10;;;;;;5008484;28;20270;-92
2022/11/19 04:49:18;;;;;;;8.00;2.40;;;13.10;93.10;;;;;;5006535;28;20275;-91
2022/11/19 04:51:49;;;;;;;13.43;3.03;;;13.10;93.10;;;;;;4997946;28;20204;-92
2022/11/19 04:54:19;;;;;;;12.83;3.70;;;13.10;93.00;;;;;;4995323;28;20619;-92
2022/11/19 04:56:49;;;;;;;16.20;4.27;;;13.10;92.90;;;;;;5001390;28;20209;-92
2022/11/19 04:59:18;;;;;;;8.87;2.43;;;13.10;93.00;;;;;;5023360;28;20210;-92
2022/11/19 05:01:46;;;;;;;5.83;1.77;;;13.10;92.90;;;;;;5011349;28;20289;-92
2022/11/19 05:04:13;;;;;;;9.87;3.33;;;13.10;93.00;;;;;;4996127;28;20524;-92
2022/11/19 05:06:40;;;;;;;9.10;2.67;;;13.10;93.00;;;;;;5006389;28;20743;-92
2022/11/19 05:09:21;;;;;;;9.43;2.97;;;13.10;93.10;;;;;;5006053;28;20242;-92
2022/11/19 05:11:49;;;;;;;12.57;3.73;;;13.10;93.20;;;;;;5010370;28;20268;-92
2022/11/19 05:14:19;;;;;;;6.63;3.00;;;13.10;93.30;;;;;;5010088;28;20193;-92
2022/11/19 05:16:47;;;;;;;6.37;2.77;;;13.20;93.40;;;;;;5014411;28;20199;-93
2022/11/19 05:19:21;;;;;;;8.47;3.30;;;13.10;93.50;;;;;;5008433;28;20218;-91
2022/11/19 05:21:49;;;;;;;8.10;3.07;;;13.20;93.60;;;;;;5018991;28;20229;-92
2022/11/19 05:24:18;;;;;;;11.97;3.33;;;13.20;93.70;;;;;;5008806;28;20207;-91
2022/11/19 05:26:46;;;;;;;7.90;2.43;;;13.20;93.70;;;;;;5001801;28;20216;-92
2022/11/19 05:29:18;;;;;;;9.47;3.13;;;13.20;93.70;;;;;;5010828;28;20223;-92
2022/11/19 05:31:49;;;;;;;6.10;2.00;;;13.20;93.80;;;;;;5021995;28;20218;-92
2022/11/19 05:34:17;;;;;;;7.57;2.63;;;13.20;93.70;;;;;;5019317;28;20490;-92
2022/11/19 05:36:45;;;;;;;10.37;3.27;;;13.20;93.60;;;;;;5008297;28;20211;-91
2022/11/19 05:39:13;;;;;;;11.17;3.63;;;13.20;93.60;;;;;;5002158;28;20271;-92
2022/11/19 05:41:50;;;;;;;9.20;2.53;;;13.20;93.50;;;;;;5008036;28;20231;-93
2022/11/19 05:44:18;;;;;;;14.60;4.20;;;13.20;93.50;;;;;;4998487;28;20966;-92
2022/11/19 05:46:47;;;;;;;10.20;3.43;;;13.20;93.50;;;;;;4993869;28;20206;-92
2022/11/19 05:49:16;;;;;;;13.07;4.67;;;13.20;93.40;;;;;;4991759;28;20261;-92
2022/11/19 05:51:45;;;;;;;17.90;5.70;;;13.20;93.50;;;;;;5003366;28;20221;-93
2022/11/19 05:54:13;;;;;;;9.87;3.33;;;13.20;93.50;;;;;;5022306;28;20209;-92
2022/11/19 05:56:44;;;;;;;7.77;3.03;;;13.20;93.40;;;;;;5012340;28;20191;-92
2022/11/19 05:59:19;;;;;;;6.57;2.83;;;13.20;93.40;;;;;;5010284;28;20261;-92
2022/11/19 06:01:46;;;;;;;5.80;2.60;;;13.20;93.40;;;;;;5014466;28;20696;-93
2022/11/19 06:04:14;;;;;;;11.10;4.03;;;13.20;93.40;;;;;;5007783;28;20206;-91
2022/11/19 06:06:42;;;;;;;11.10;2.93;;;13.20;93.40;;;;;;5013150;28;20206;-92
2022/11/19 06:09:12;;;;;;;9.47;3.33;;;13.10;93.40;;;;;;5009660;28;20211;-91
2022/11/19 06:11:49;;;;;;;8.70;3.10;;;13.20;93.50;;;;;;5013169;28;20193;-91
2022/11/19 06:14:21;;;;;;;19.93;5.17;;;13.20;93.60;;;;;;5022851;28;20262;-93
2022/11/19 06:16:48;;;;;;;9.70;2.80;;;13.20;93.60;;;;;;5009344;28;20628;-92
2022/11/19 06:19:16;;;;;;;13.43;4.53;;;13.20;93.70;;;;;;5005007;28;20222;-92
2022/11/19 06:21:50;;;;;;;12.30;3.40;;;13.20;93.70;;;;;;5007198;28;20656;-91
2022/11/19 06:24:22;;;;;;;11.77;3.83;;;13.20;93.80;;;;;;5007820;28;20231;-91
2022/11/19 06:26:54;;;;;;;14.80;4.80;;;13.20;93.80;;;;;;5011757;28;20224;-92
2022/11/19 06:29:25;;;;;;;11.47;4.27;;;13.20;93.80;;;;;;5010594;28;20326;-91
2022/11/19 06:31:52;;;;;;;6.70;3.13;;;13.20;93.90;;;;;;5018013;28;20209;-92
2022/11/19 06:34:26;;;;;;;9.03;3.37;;;13.20;93.80;;;;;;5009139;28;20206;-92
2022/11/19 06:36:57;;;;;;;12.33;3.93;;;13.20;93.90;;;;;;4998007;28;20981;-93
2022/11/19 06:39:25;;;;;;;15.60;4.87;;;13.20;94.00;;;;;;5002099;28;20219;-92
2022/11/19 06:42:34;;;;;;;17.00;5.27;;;13.20;94.00;;;;;;4999994;28;20242;-92
2022/11/19 06:44:43;;;;;;;13.23;3.80;;;13.20;94.00;;;;;;4994141;28;20264;-92
2022/11/19 06:47:16;;;;;;;13.97;5.10;;;13.20;94.00;;;;;;4994856;28;20887;-93
2022/11/19 06:49:44;;;;;;;12.40;4.40;;;13.20;94.20;;;;;;5003737;28;20226;-93
2022/11/19 06:52:13;;;;;;;7.83;3.77;;;13.20;94.00;;;;;;5032854;28;20194;-91
2022/11/19 06:54:49;;;;;;;8.30;4.13;;;13.30;94.20;;;;;;5019250;28;20227;-92
2022/11/19 06:57:31;;;;;;;12.90;6.13;;;13.20;94.20;;;;;;5025120;28;20257;-92
2022/11/19 07:00:08;;;;;;;11.13;4.60;;;13.30;94.20;;;;;;5019529;28;20211;-91
2022/11/19 07:02:39;;;;;;;13.23;5.43;;;13.30;94.20;;;;;;5016440;28;20341;-91
2022/11/19 07:05:16;;;;;;;11.43;4.70;;;13.30;94.20;;;;;;5009809;28;20215;-92
2022/11/19 07:07:51;;;;;;;9.90;4.40;;;13.30;94.30;;;;;;5014888;28;20270;-92
2022/11/19 07:10:26;;;;;;;13.50;5.37;;;13.30;94.30;;;;;;5012323;28;20232;-92
2022/11/19 07:12:59;;;;;;;16.07;6.27;;;13.30;94.30;;;;;;5003675;28;20272;-92
2022/11/19 07:15:33;;;;;;;12.50;5.30;;;13.30;94.30;;;;;;5010563;28;20236;-91
2022/11/19 07:18:02;;;;;;;17.43;6.00;;;13.30;94.30;;;;;;5001796;28;20229;-93
2022/11/19 07:20:29;;;;;;;14.40;5.73;;;13.30;94.30;;;;;;5005925;28;20194;-92
2022/11/19 07:22:57;;;;;;;16.30;6.10;;;13.30;94.20;;;;;;5000085;28;20739;-91
2022/11/19 07:25:32;;;;;;;10.33;5.57;;;13.30;94.20;;;;;;5002703;28;20636;-92
2022/11/19 07:28:08;;;;;;;14.43;7.20;;;13.30;94.10;;;;;;4998451;28;20256;-92
2022/11/19 07:30:41;;;;;;;16.43;7.37;;;13.40;94.20;;;;;;4997395;28;20234;-92
2022/11/19 07:33:11;;;;;;;16.57;7.73;;;13.30;94.00;;;;;;4996389;28;20592;-92
2022/11/19 07:35:43;;;;;;;14.57;6.93;;;13.30;94.00;;;;;;4989748;28;20214;-92
2022/11/19 07:38:14;;;;;;;19.93;7.93;;;13.30;94.00;;;;;;4991085;28;20675;-92
2022/11/19 07:40:52;;;;;;;15.43;6.87;;;13.30;94.00;;;;;;5000315;28;20220;-92
2022/11/19 07:43:23;;;;;;;11.60;5.10;;;13.30;93.90;;;;;;4994962;28;20210;-91
2022/11/19 07:45:52;;;;;;;16.23;7.03;;;13.30;93.80;;;;;;5004135;28;20207;-92
2022/11/19 07:48:23;;;;;;;13.27;5.70;;;13.30;93.90;;;;;;5013198;28;20211;-92
2022/11/19 07:50:55;;;;;;;9.53;5.10;;;13.30;93.90;;;;;;5012070;28;20285;-92
2022/11/19 07:56:08;;;;;;;8.77;5.17;;;13.30;93.90;;;;;;5006637;28;20235;-92
2022/11/19 07:58:36;;;;;;;17.10;7.33;;;13.30;94.00;;;;;;5007634;28;20285;-92
2022/11/19 08:01:22;;;;;;;11.90;6.27;;;13.30;93.90;;;;;;5003559;28;20196;-91
2022/11/19 08:03:50;;;;;;;17.83;7.57;;;13.20;94.00;;;;;;5007622;28;20209;-93
2022/11/19 08:06:23;;;;;;;14.07;6.10;;;13.20;93.90;;;;;;5001989;28;20203;-92
2022/11/19 08:08:52;;;;;;;12.40;5.90;;;13.20;94.00;;;;;;5002553;28;20242;-94
2022/11/19 08:11:21;;;;;;;12.27;6.30;;;13.20;93.90;;;;;;5008399;28;20762;-92
2022/11/19 08:13:51;;;;;;;14.83;7.30;;;13.20;93.90;;;;;;5006397;28;20206;-95
2022/11/19 08:19:14;;;;;;;14.03;7.70;;;13.20;93.70;;;;;;4968233;28;20208;-93
2022/11/19 08:21:43;;;;;;;20.03;8.27;;;13.20;93.60;;;;;;5014022;28;20202;-93
2022/11/19 08:24:14;;;;;;;14.40;7.00;;;13.10;93.30;;;;;;4999098;28;20273;-93
2022/11/19 08:26:45;;;;;;;13.60;6.07;;;13.10;93.20;;;;;;5002527;28;20213;-93
2022/11/19 08:29:24;;;;;;;12.23;5.70;;;13.10;93.10;;;;;;5014178;28;20210;-93
2022/11/19 08:31:52;;;;;;;7.27;4.17;;;13.10;92.80;;;;;;5002128;28;20731;-93
2022/11/19 08:34:21;;;;;;;14.73;6.53;;;13.00;92.70;;;;;;5008457;28;20195;-93
2022/11/19 08:36:55;;;;;;;12.53;5.83;;;13.00;92.60;;;;;;5007592;28;20205;-92
2022/11/19 08:39:23;;;;;;;16.23;6.67;;;13.00;92.50;;;;;;4993638;28;20301;-93
2022/11/19 08:44:38;;;;;;;11.30;5.47;;;12.90;92.30;;;;;;4998165;28;20269;-93
2022/11/19 08:47:07;;;;;;;9.13;4.50;;;12.80;92.20;;;;;;5012034;28;20238;-92
2022/11/19 08:49:34;;;;;;;12.93;5.43;;;12.80;92.10;;;;;;5007814;28;20198;-94
2022/11/19 08:52:01;;;;;;;8.93;5.10;;;12.70;92.10;;;;;;5010895;28;20241;-92
2022/11/19 08:54:28;;;;;;;12.67;6.23;;;12.70;92.10;;;;;;5001513;28;20713;-93
2022/11/19 08:56:56;;;;;;;16.67;6.63;;;12.70;92.00;;;;;;4993953;28;20239;-93
2022/11/19 08:59:24;;;;;;;6.67;4.90;;;12.60;92.00;;;;;;5020922;28;20193;-93
2022/11/19 09:01:54;;;;;;;10.70;6.10;;;12.60;92.00;;;;;;5012566;28;20205;-92
2022/11/19 09:04:24;;;;;;;9.50;5.47;;;12.60;91.70;;;;;;5006434;28;20228;-92
2022/11/19 09:06:52;;;;;;;13.47;6.47;;;12.50;91.70;;;;;;5002455;28;20229;-92
2022/11/19 09:09:21;;;;;;;20.47;8.23;;;12.40;91.70;;;;;;5012445;28;20194;-92
2022/11/19 09:11:50;;;;;;;11.53;5.57;;;12.40;91.80;;;;;;5008420;28;20220;-93
2022/11/19 09:14:36;;;;;;;12.33;6.57;;;12.30;91.90;;;;;;5027157;28;20209;-93
2022/11/19 09:17:08;;;;;;;18.03;8.13;;;12.30;91.50;;;;;;5005581;28;20285;-92
2022/11/19 09:19:50;;;;;;;15.60;7.73;;;12.30;91.60;;;;;;4992390;28;20207;-93
2022/11/19 09:22:18;;;;;;;22.93;9.73;;;12.20;91.40;;;;;;5001350;28;20206;-93
2022/11/19 09:24:48;;;;;;;20.20;9.50;;;12.20;91.50;;;;;;4989963;28;20257;-93
2022/11/19 09:27:16;;;;;;;16.80;8.80;;;12.20;91.40;;;;;;4989680;28;20690;-92
2022/11/19 09:29:44;;;;;;;18.63;9.23;;;12.10;91.40;;;;;;4989580;28;20210;-94
2022/11/19 09:32:14;;;;;;;15.70;9.60;;;12.00;91.30;;;;;;4993941;28;20288;-94
2022/11/19 09:35:24;;;;;;;18.20;10.00;;;12.00;91.20;;;;;;4992061;28;20202;-94
2022/11/19 09:37:52;;;;;;;16.87;9.07;;;11.90;91.20;;;;;;4990871;28;20202;-96
2022/11/19 09:40:24;;;;;;;14.43;8.63;;;11.90;91.30;;;;;;4991244;28;20257;-92
2022/11/19 09:43:04;;;;;;;17.33;9.40;;;11.80;91.50;;;;;;5000539;28;20210;-93
2022/11/19 09:45:52;;;;;;;17.03;9.77;;;11.80;91.60;;;;;;4997182;28;20210;-93
2022/11/19 09:51:32;;;;;;;19.30;10.10;;;11.80;91.70;;;;;;5108516;27;20614;-93
2022/11/19 09:54:04;;;;;;;18.57;10.30;;;11.70;91.60;;;;;;5105540;28;20229;-92
2022/11/19 09:56:37;;;;;;;16.30;9.77;;;11.60;91.60;;;;;;5104273;28;20221;-91
2022/11/19 09:59:13;;;;;;;21.50;11.30;;;11.60;91.60;;;;;;5090712;28;20201;-90
2022/11/19 10:01:42;;;;;;;18.60;10.50;;;11.60;91.80;;;;;;5101210;28;20233;-91
2022/11/19 10:04:14;;;;;;;17.00;10.23;;;11.60;92.00;;;;;;5103959;28;20201;-91
2022/11/19 10:07:00;;;;;;;23.77;11.23;;;11.60;92.00;;;;;;5105041;28;20191;-92
2022/11/19 10:09:43;;;;;;;20.67;10.60;;;11.50;91.90;;;;;;5118879;28;20244;-92
2022/11/19 10:12:29;;;;;;;14.97;10.03;;;11.50;91.90;;;;;;5104271;28;20206;-92
2022/11/19 10:15:19;;;;;;;19.43;10.67;;;11.50;91.80;;;;;;5111776;28;20229;-92
2022/11/19 10:17:58;;;;;;;18.40;10.57;;;11.40;91.60;;;;;;5107989;28;20203;-91
2022/11/19 10:20:50;;;;;;;21.03;11.40;;;11.40;91.50;;;;;;5091317;28;20195;-91
2022/11/19 10:23:23;;;;;;;19.17;10.93;;;11.40;91.40;;;;;;5088272;28;20663;-93
2022/11/19 10:25:58;;;;;;;19.57;11.30;;;11.30;91.20;;;;;;5087515;28;20287;-91
2022/11/19 10:28:35;;;;;;;22.43;12.33;;;11.30;91.30;;;;;;5086751;28;21003;-92
2022/11/19 10:31:07;;;;;;;22.70;11.43;;;11.30;91.10;;;;;;5096743;28;20299;-93
2022/11/19 10:33:50;;;;;;;18.30;10.80;;;11.20;90.90;;;;;;5106153;28;20309;-94
2022/11/19 10:36:26;;;;;;;16.63;10.33;;;11.20;90.90;;;;;;5110981;28;20210;-93
2022/11/19 10:39:03;;;;;;;22.30;11.70;;;11.10;91.00;;;;;;5102308;28;20205;-92
2022/11/19 10:41:38;;;;;;;21.27;11.70;;;11.00;90.90;;;;;;5100957;28;20194;-93
2022/11/19 10:44:36;;;;;;;20.40;11.77;;;11.00;90.90;;;;;;5112372;28;20193;-91
2022/11/19 10:47:15;;;;;;;19.53;11.50;;;11.00;90.90;;;;;;5108877;28;20619;-93
2022/11/19 10:49:44;;;;;;;17.00;11.33;;;10.90;90.90;;;;;;5110903;28;20230;-92
2022/11/19 10:52:25;;;;;;;23.53;12.83;;;10.80;91.00;;;;;;5098324;28;21960;-92
2022/11/19 10:54:59;;;;;;;22.83;12.53;;;10.80;90.90;;;;;;5098359;28;20202;-92
2022/11/19 10:57:32;;;;;;;23.90;13.83;;;10.80;91.00;;;;;;5098309;28;20230;-93
2022/11/19 11:00:01;;;;;;;22.63;14.33;;;10.70;91.20;;;;;;5098871;28;20202;-91
2022/11/19 11:02:40;;;;;;;21.73;12.93;;;10.70;91.00;;;;;;5095689;28;20271;-92
2022/11/19 11:05:14;;;;;;;23.03;14.13;;;10.70;90.90;;;;;;5087385;28;20213;-92
2022/11/19 11:07:59;;;;;;;24.00;14.60;;;10.60;91.10;;;;;;5105937;28;20198;-94
2022/11/19 11:10:46;;;;;;;21.70;14.40;;;10.60;91.10;;;;;;5080247;28;20246;-93
2022/11/19 11:16:28;;;;;;;21.93;15.20;;;10.50;91.00;;;;;;5081624;28;20202;-92
2022/11/19 11:18:59;;;;;;;33.70;19.10;;;10.50;91.10;;;;;;5076559;28;20203;-93
2022/11/19 11:21:35;;;;;;;29.83;19.07;;;10.50;91.10;;;;;;5077413;28;20291;-93
2022/11/19 11:24:07;;;;;;;29.77;18.27;;;10.50;91.20;;;;;;5083980;28;20206;-93
2022/11/19 11:26:42;;;;;;;30.97;18.70;;;10.40;91.30;;;;;;5098021;28;20216;-92
2022/11/19 11:29:31;;;;;;;27.83;18.57;;;10.40;91.40;;;;;;5105035;28;20218;-93
2022/11/19 11:32:12;;;;;;;26.27;17.47;;;10.30;91.40;;;;;;5103149;28;20208;-93
2022/11/19 11:34:43;;;;;;;29.17;19.30;;;10.30;91.40;;;;;;5086860;28;20277;-93
2022/11/19 11:37:11;;;;;;;31.50;19.27;;;10.30;91.60;;;;;;5090056;28;20318;-93
2022/11/19 11:39:51;;;;;;;26.57;16.97;;;10.30;91.80;;;;;;5099502;28;20190;-95
2022/11/19 11:45:52;;;;;;;27.40;18.87;;;10.30;92.00;;;;;;5048252;22;20243;-95
2022/11/19 11:55:38;;;;;;;25.77;16.20;;;10.30;91.80;;;;;;5009408;28;20211;-94
2022/11/19 11:58:29;;;;;;;25.00;15.37;;;10.30;91.60;;;;;;5036896;28;20641;-93
2022/11/19 12:01:18;;;;;;;24.47;15.90;;;10.30;91.60;;;;;;5037658;28;20235;-93
2022/11/19 12:04:01;;;;;;;26.97;17.03;;;10.30;91.40;;;;;;5039954;28;20255;-94
2022/11/19 12:06:39;;;;;;;31.67;18.23;;;10.30;91.40;;;;;;5046378;28;20203;-94
2022/11/19 12:09:17;;;;;;;26.13;17.73;;;10.30;91.30;;;;;;5046947;28;20246;-94
2022/11/19 12:11:59;;;;;;;28.83;17.40;;;10.30;91.20;;;;;;5028369;28;20263;-94
2022/11/19 12:14:32;;;;;;;28.17;17.47;;;10.20;91.00;;;;;;5047590;28;20552;-93
2022/11/19 12:17:23;;;;;;;24.83;16.53;;;10.20;91.00;;;;;;5048252;28;20201;-93
2022/11/19 12:20:19;;;;;;;24.50;17.07;;;10.10;91.00;;;;;;5049360;28;20211;-94
2022/11/19 12:23:05;;;;;;;25.27;16.47;;;10.20;91.20;;;;;;5047831;28;20235;-94
2022/11/19 12:25:40;;;;;;;27.80;17.07;;;10.10;90.70;;;;;;5045463;28;20214;-94
2022/11/19 12:28:46;;;;;;;28.47;18.07;;;10.10;90.90;;;;;;5043143;28;20247;-93
2022/11/19 12:31:27;;;;;;;30.97;19.30;;;10.00;90.70;;;;;;5039981;28;20346;-93
2022/11/19 12:34:20;;;;;;;33.73;19.20;;;10.00;90.80;;;;;;5042386;28;20196;-93
2022/11/19 12:36:57;;;;;;;35.30;21.73;;;10.00;90.90;;;;;;5040745;28;20215;-94
2022/11/19 12:39:37;;;;;;;35.07;21.13;;;9.90;91.20;;;;;;5039385;28;20205;-93
2022/11/19 12:42:37;;;;;;;39.33;21.57;;;9.90;91.30;;;;;;5038458;28;20201;-94
2022/11/19 12:45:20;;;;;;;32.80;20.80;;;9.90;91.40;;;;;;5045250;28;20729;-94
2022/11/19 12:48:16;;;;;;;32.77;20.03;;;9.90;91.40;;;;;;5044014;28;20655;-93
2022/11/19 12:50:55;;;;;;;36.93;22.87;;;9.80;91.50;;;;;;5039518;28;20254;-93
2022/11/19 12:53:48;;;;;;;33.87;20.47;;;9.80;91.70;;;;;;5040128;28;20203;-92
2022/11/19 12:56:33;;;;;;;32.13;19.87;;;9.80;91.70;;;;;;5038855;28;20259;-93
2022/11/19 12:59:23;;;;;;;31.83;20.03;;;9.90;91.70;;;;;;5047611;28;20207;-93
2022/11/19 13:01:55;;;;;;;29.83;19.73;;;9.80;91.60;;;;;;5051189;28;20203;-93
2022/11/19 13:04:30;;;;;;;32.53;20.00;;;9.80;91.50;;;;;;5050628;28;20212;-93
2022/11/19 13:07:12;;;;;;;32.70;20.87;;;9.80;91.60;;;;;;5036553;28;20221;-92
2022/11/19 13:09:48;;;;;;;34.93;20.80;;;9.80;91.80;;;;;;5045504;28;20203;-92
2022/11/19 13:12:21;;;;;;;40.17;22.93;;;9.80;91.80;;;;;;5043194;28;20689;-93
2022/11/19 13:14:58;;;;;;;32.03;21.43;;;9.80;91.70;;;;;;5042221;28;20239;-93
2022/11/19 13:17:33;;;;;;;42.53;23.13;;;9.80;91.60;;;;;;5038585;28;20658;-93
2022/11/19 13:20:07;;;;;;;36.17;23.00;;;9.80;91.50;;;;;;5044235;28;20207;-92
2022/11/19 13:22:42;;;;;;;37.60;21.63;;;9.80;91.60;;;;;;5037592;28;20205;-93
2022/11/19 13:25:19;;;;;;;38.50;24.20;;;9.80;91.70;;;;;;5038228;28;20740;-94
2022/11/19 13:27:59;;;;;;;41.47;23.40;;;9.80;91.80;;;;;;5039433;28;20211;-93
2022/11/19 13:30:32;;;;;;;36.23;22.23;;;9.80;91.80;;;;;;5043847;28;20244;-92
2022/11/19 13:33:11;;;;;;;38.50;22.43;;;9.80;91.70;;;;;;5044119;28;20203;-92
2022/11/19 13:35:47;;;;;;;40.27;24.90;;;9.80;91.70;;;;;;5040668;28;20564;-92
2022/11/19 13:38:30;;;;;;;39.37;24.53;;;9.80;91.70;;;;;;5036482;28;20230;-92
2022/11/19 13:41:09;;;;;;;31.87;22.00;;;9.80;91.60;;;;;;5043915;28;20574;-93
2022/11/19 13:46:25;;;;;;;36.63;22.90;;;9.80;91.70;;;;;;5044330;28;20676;-93
2022/11/19 13:49:02;;;;;;;38.17;24.30;;;9.80;91.50;;;;;;5045067;28;20198;-93
2022/11/19 13:51:36;;;;;;;43.47;27.07;;;9.80;91.60;;;;;;5042003;28;20279;-93
2022/11/19 13:54:09;;;;;;;41.73;26.83;;;9.80;91.70;;;;;;5045568;28;20197;-93
2022/11/19 13:56:43;;;;;;;44.93;27.30;;;9.80;91.70;;;;;;5049255;28;20219;-93
2022/11/19 13:59:33;;;;;;;41.03;26.53;;;9.80;91.70;;;;;;5033499;28;20207;-93